createdAt,value
2023-05-31T00:01:21.039Z,100405.31
2023-05-31T00:04:47.546Z,100404.22
2023-05-31T00:08:11.812Z,100401.41
2023-05-31T00:11:36.768Z,100399.87
2023-05-31T00:15:01.575Z,100408.97
2023-05-31T00:18:28.874Z,100402.78
2023-05-31T00:21:54.861Z,100403.37
2023-05-31T00:25:19.011Z,100400.13
2023-05-31T00:28:43.116Z,100400.31
2023-05-31T00:32:08.620Z,100395.63
2023-05-31T00:35:32.945Z,100405.41
2023-05-31T00:38:59.680Z,100400.28
2023-05-31T00:42:23.419Z,100397.53
2023-05-31T00:45:48.168Z,100394.47
2023-05-31T00:49:12.352Z,100397.63
2023-05-31T00:52:37.261Z,100390.56
2023-05-31T00:56:02.664Z,100392.50
2023-05-31T00:59:28.286Z,100385.56
2023-05-31T01:02:53.415Z,100389.87
2023-05-31T01:06:18.487Z,100392.16
2023-05-31T01:09:44.302Z,100391.25
2023-05-31T01:13:17.328Z,100384.53
2023-05-31T01:16:44.324Z,100383.22
2023-05-31T01:20:10.848Z,100378.88
2023-05-31T01:23:42.184Z,100376.47
2023-05-31T01:27:08.317Z,100375.94
2023-05-31T01:30:32.130Z,100373.84
2023-05-31T01:33:56.890Z,100382.38
2023-05-31T01:37:20.827Z,100376.44
2023-05-31T01:40:45.567Z,100375.44
2023-05-31T01:44:11.903Z,100388.47
2023-05-31T01:47:36.356Z,100383.31
2023-05-31T01:51:00.803Z,100384.09
2023-05-31T01:54:25.379Z,100377.91
2023-05-31T01:57:49.283Z,100382.59
2023-05-31T02:01:15.008Z,100387.59
2023-05-31T02:04:39.591Z,100388.56
2023-05-31T02:08:03.906Z,100386.03
2023-05-31T02:11:28.798Z,100396.22
2023-05-31T02:14:52.978Z,100387.09
2023-05-31T02:18:19.833Z,100388.47
2023-05-31T02:21:43.942Z,100396.03
2023-05-31T02:25:08.925Z,100396.37
2023-05-31T02:28:33.732Z,100403.69
2023-05-31T02:31:58.515Z,100405.81
2023-05-31T02:35:23.928Z,100402.72
2023-05-31T02:38:48.119Z,100415.41
2023-05-31T02:42:12.257Z,100407.03
2023-05-31T02:45:36.633Z,100410.25
2023-05-31T02:49:01.616Z,100402.66
2023-05-31T02:52:27.923Z,100407.16
2023-05-31T02:55:54.421Z,100409.50
2023-05-31T02:59:21.446Z,100418.00
2023-05-31T03:02:45.852Z,100414.66
2023-05-31T03:06:13.105Z,100416.56
2023-05-31T03:09:40.151Z,100417.13
2023-05-31T03:13:04.441Z,100420.59
2023-05-31T03:16:30.279Z,100429.78
2023-05-31T03:19:55.683Z,100432.63
2023-05-31T03:23:20.385Z,100423.16
2023-05-31T03:26:46.257Z,100427.03
2023-05-31T03:30:11.291Z,100433.94
2023-05-31T03:33:38.780Z,100438.81
2023-05-31T03:37:02.508Z,100438.22
2023-05-31T03:40:27.847Z,100437.78
2023-05-31T03:43:53.598Z,100437.78
2023-05-31T03:47:18.912Z,100442.53
2023-05-31T03:50:43.927Z,100447.41
2023-05-31T03:54:09.136Z,100447.69
2023-05-31T03:57:33.007Z,100440.69
2023-05-31T04:00:59.954Z,100444.97
2023-05-31T04:04:24.361Z,100444.72
2023-05-31T04:07:49.798Z,100451.59
2023-05-31T04:11:14.099Z,100445.06
2023-05-31T04:14:37.076Z,100452.22
2023-05-31T04:18:03.210Z,100454.25
2023-05-31T04:21:28.155Z,100456.84
2023-05-31T04:24:53.706Z,100456.25
2023-05-31T04:28:20.818Z,100463.38
2023-05-31T04:31:51.567Z,100456.00
2023-05-31T04:35:18.631Z,100462.88
2023-05-31T04:38:43.737Z,100459.66
2023-05-31T04:42:13.077Z,100467.75
2023-05-31T04:45:38.315Z,100466.12
2023-05-31T04:49:06.153Z,100462.81
2023-05-31T04:52:33.104Z,100467.22
2023-05-31T04:56:05.865Z,100472.78
2023-05-31T04:59:30.418Z,100466.81
2023-05-31T05:02:54.345Z,100468.38
2023-05-31T05:06:19.640Z,100468.25
2023-05-31T05:09:46.304Z,100477.72
2023-05-31T05:13:10.517Z,100480.78
2023-05-31T05:16:35.342Z,100482.41
2023-05-31T05:20:00.888Z,100482.72
2023-05-31T05:23:25.562Z,100480.87
2023-05-31T05:26:52.004Z,100481.16
2023-05-31T05:30:17.521Z,100478.84
2023-05-31T05:33:42.070Z,100477.09
2023-05-31T05:37:07.181Z,100483.78
2023-05-31T05:40:31.641Z,100483.03
2023-05-31T05:43:57.028Z,100471.63
2023-05-31T05:47:21.735Z,100486.56
2023-05-31T05:50:47.450Z,100492.19
2023-05-31T05:54:12.614Z,100491.44
2023-05-31T05:57:37.619Z,100488.59
2023-05-31T06:01:06.612Z,100490.34
2023-05-31T06:04:31.116Z,100494.72
2023-05-31T06:07:56.039Z,100500.16
2023-05-31T06:11:22.047Z,100491.47
2023-05-31T06:14:46.645Z,100498.31
2023-05-31T06:18:13.804Z,100501.28
2023-05-31T06:21:38.910Z,100503.31
2023-05-31T06:25:04.019Z,100508.56
2023-05-31T06:28:28.413Z,100511.78
2023-05-31T06:31:53.619Z,100515.72
2023-05-31T06:35:18.976Z,100525.69
2023-05-31T06:38:43.849Z,100511.72
2023-05-31T06:42:07.582Z,100516.00
2023-05-31T06:45:32.319Z,100520.78
2023-05-31T06:49:11.171Z,100516.06
2023-05-31T06:52:41.888Z,100512.09
2023-05-31T06:56:08.331Z,100520.94
2023-05-31T06:59:34.192Z,100519.47
2023-05-31T07:03:02.535Z,100515.88
2023-05-31T07:06:28.469Z,100523.25
2023-05-31T07:09:54.300Z,100520.31
2023-05-31T07:13:18.884Z,100532.34
2023-05-31T07:16:42.804Z,100528.50
2023-05-31T07:20:10.102Z,100527.94
2023-05-31T07:23:33.643Z,100542.25
2023-05-31T07:26:58.057Z,100535.13
2023-05-31T07:30:23.304Z,100538.19
2023-05-31T07:33:49.374Z,100535.34
2023-05-31T07:37:13.632Z,100535.94
2023-05-31T07:40:38.196Z,100533.56
2023-05-31T07:44:04.462Z,100523.38
2023-05-31T07:47:29.654Z,100522.00
2023-05-31T07:50:54.088Z,100525.16
2023-05-31T07:54:18.720Z,100523.91
2023-05-31T07:57:42.753Z,100519.66
2023-05-31T08:01:08.775Z,100521.94
2023-05-31T08:04:33.445Z,100527.00
2023-05-31T08:07:57.851Z,100531.13
2023-05-31T08:11:22.741Z,100530.38
2023-05-31T08:14:46.557Z,100524.16
2023-05-31T08:18:13.028Z,100524.03
2023-05-31T08:21:38.585Z,100533.84
2023-05-31T08:25:02.857Z,100524.38
2023-05-31T08:28:26.934Z,100526.81
2023-05-31T08:31:51.062Z,100526.06
2023-05-31T08:35:16.594Z,100527.34
2023-05-31T08:38:40.480Z,100532.91
2023-05-31T08:42:07.388Z,100528.13
2023-05-31T08:45:32.388Z,100527.09
2023-05-31T08:48:59.428Z,100528.19
2023-05-31T08:52:26.075Z,100531.63
2023-05-31T08:55:50.322Z,100535.78
2023-05-31T08:59:17.993Z,100521.91
2023-05-31T09:02:42.705Z,100532.25
2023-05-31T09:06:08.193Z,100523.28
2023-05-31T09:09:34.506Z,100520.19
2023-05-31T09:12:59.502Z,100526.34
2023-05-31T09:16:23.938Z,100519.78
2023-05-31T09:19:53.974Z,100509.38
2023-05-31T09:23:20.251Z,100509.72
2023-05-31T09:26:50.736Z,100511.34
2023-05-31T09:30:16.560Z,100502.16
2023-05-31T09:33:44.063Z,100512.81
2023-05-31T09:37:08.219Z,100513.25
2023-05-31T09:40:34.232Z,100504.25
2023-05-31T09:44:00.200Z,100504.97
2023-05-31T09:47:28.289Z,100514.81
2023-05-31T09:50:53.049Z,100502.25
2023-05-31T09:54:18.954Z,100505.78
2023-05-31T09:57:43.474Z,100505.63
2023-05-31T10:01:09.257Z,100510.44
2023-05-31T10:04:35.782Z,100501.53
2023-05-31T10:07:59.917Z,100503.44
2023-05-31T10:11:28.414Z,100504.03
2023-05-31T10:14:56.787Z,100504.91
2023-05-31T10:18:22.929Z,100497.50
2023-05-31T10:21:47.842Z,100495.13
2023-05-31T10:25:13.215Z,100496.09
2023-05-31T10:28:39.493Z,100495.06
2023-05-31T10:32:08.225Z,100493.28
2023-05-31T10:35:33.753Z,100493.84
2023-05-31T10:39:01.377Z,100489.34
2023-05-31T10:42:28.733Z,100488.37
2023-05-31T10:45:55.599Z,100494.16
2023-05-31T10:49:19.669Z,100493.38
2023-05-31T10:52:45.843Z,100495.94
2023-05-31T10:56:10.683Z,100483.34
2023-05-31T10:59:42.218Z,100470.19
2023-05-31T11:03:05.452Z,100482.88
2023-05-31T11:06:30.639Z,100476.25
2023-05-31T11:10:01.970Z,100477.37
2023-05-31T11:13:26.767Z,100484.87
2023-05-31T11:17:17.571Z,100472.47
2023-05-31T11:20:42.733Z,100476.12
2023-05-31T11:24:08.738Z,100472.09
2023-05-31T11:27:41.905Z,100472.78
2023-05-31T11:31:05.792Z,100468.84
2023-05-31T11:34:30.886Z,100462.34
2023-05-31T11:38:03.520Z,100449.03
2023-05-31T11:41:29.755Z,100455.72
2023-05-31T11:44:55.170Z,100447.84
2023-05-31T11:48:41.055Z,100445.00
2023-05-31T11:52:04.785Z,100444.66
2023-05-31T11:55:34.132Z,100454.03
2023-05-31T11:58:59.220Z,100443.25
2023-05-31T12:02:24.892Z,100445.59
2023-05-31T12:05:52.857Z,100431.88
2023-05-31T12:09:16.993Z,100432.91
2023-05-31T12:12:41.808Z,100428.03
2023-05-31T12:16:09.296Z,100422.63
2023-05-31T12:19:35.254Z,100427.69
2023-05-31T12:23:13.001Z,100416.59
2023-05-31T12:26:39.382Z,100420.37
2023-05-31T12:30:04.410Z,100426.06
2023-05-31T12:33:32.235Z,100416.84
2023-05-31T12:36:57.271Z,100413.78
2023-05-31T12:40:24.463Z,100413.56
2023-05-31T12:43:48.515Z,100405.38
2023-05-31T12:47:12.663Z,100402.94
2023-05-31T12:50:37.300Z,100409.41
2023-05-31T12:54:05.447Z,100394.38
2023-05-31T12:57:29.531Z,100401.78
2023-05-31T13:00:53.995Z,100403.97
2023-05-31T13:04:17.730Z,100395.22
2023-05-31T13:07:42.120Z,100393.66
2023-05-31T13:11:08.158Z,100393.37
2023-05-31T13:14:33.055Z,100392.38
2023-05-31T13:17:57.309Z,100377.59
2023-05-31T13:21:21.737Z,100376.81
2023-05-31T13:24:46.220Z,100373.78
2023-05-31T13:28:12.333Z,100373.06
2023-05-31T13:31:36.223Z,100363.78
2023-05-31T13:35:01.516Z,100365.16
2023-05-31T13:38:25.891Z,100362.28
2023-05-31T13:41:53.216Z,100365.72
2023-05-31T13:45:18.621Z,100359.22
2023-05-31T13:48:42.057Z,100347.81
2023-05-31T13:52:06.559Z,100352.19
2023-05-31T13:55:30.784Z,100353.09
2023-05-31T13:58:55.033Z,100341.66
2023-05-31T14:02:20.776Z,100347.09
2023-05-31T14:05:47.958Z,100347.38
2023-05-31T14:09:11.887Z,100324.59
2023-05-31T14:12:36.702Z,100327.47
2023-05-31T14:16:00.802Z,100331.72
